createdAt,value
2016-11-30T00:00:37.909Z,0
2016-11-30T00:01:38.505Z,0
2016-11-30T00:02:37.844Z,0
2016-11-30T00:03:37.816Z,0
2016-11-30T00:04:37.842Z,0
2016-11-30T00:05:37.770Z,0
2016-11-30T00:06:37.739Z,0
2016-11-30T00:07:38.036Z,0
2016-11-30T00:08:38.004Z,0
2016-11-30T00:09:37.981Z,0
2016-11-30T00:10:37.943Z,0
2016-11-30T00:11:37.611Z,0
2016-11-30T00:12:37.892Z,0
2016-11-30T00:13:37.551Z,0
2016-11-30T00:14:37.536Z,0
2016-11-30T00:15:37.818Z,0
2016-11-30T00:16:37.484Z,0
2016-11-30T00:17:37.448Z,0
2016-11-30T00:18:37.427Z,0
2016-11-30T00:19:37.715Z,0
2016-11-30T00:20:37.424Z,0
2016-11-30T00:21:37.352Z,0
2016-11-30T00:22:37.323Z,0
2016-11-30T00:23:37.291Z,0
2016-11-30T00:24:37.580Z,0
2016-11-30T00:25:37.555Z,0
2016-11-30T00:26:37.541Z,0
2016-11-30T00:27:37.240Z,0
2016-11-30T00:28:37.167Z,0
2016-11-30T00:29:37.483Z,0
2016-11-30T00:30:37.427Z,0
2016-11-30T00:31:37.412Z,0
2016-11-30T00:32:37.065Z,0
2016-11-30T00:33:37.356Z,0
2016-11-30T00:34:37.641Z,0
2016-11-30T00:35:37.014Z,0
2016-11-30T00:36:37.271Z,0
2016-11-30T00:37:36.940Z,0
2016-11-30T00:38:36.909Z,0
2016-11-30T00:39:36.885Z,0
2016-11-30T00:40:36.863Z,0
2016-11-30T00:41:36.831Z,0
2016-11-30T00:42:36.804Z,0
2016-11-30T00:43:36.785Z,0
2016-11-30T00:44:37.069Z,0
2016-11-30T00:45:36.720Z,0
2016-11-30T00:46:37.011Z,0
2016-11-30T00:47:36.997Z,0
2016-11-30T00:48:37.279Z,0
2016-11-30T00:49:36.954Z,0
2016-11-30T00:50:36.598Z,0
2016-11-30T00:51:36.895Z,0
2016-11-30T00:52:36.852Z,0
2016-11-30T00:53:36.517Z,0
2016-11-30T00:54:36.495Z,0
2016-11-30T00:55:36.460Z,0
2016-11-30T00:56:36.452Z,0
2016-11-30T00:57:36.756Z,0
2016-11-30T00:58:36.387Z,0
2016-11-30T00:59:36.682Z,0
2016-11-30T01:00:36.338Z,0
2016-11-30T01:01:36.310Z,0
2016-11-30T01:02:36.285Z,0
2016-11-30T01:03:36.577Z,0
2016-11-30T01:04:36.238Z,0
2016-11-30T01:05:36.516Z,0
2016-11-30T01:06:36.186Z,0
2016-11-30T01:07:36.150Z,0
2016-11-30T01:08:36.125Z,0
2016-11-30T01:09:36.105Z,0
2016-11-30T01:10:36.081Z,0
2016-11-30T01:11:36.049Z,0
2016-11-30T01:12:36.341Z,0
2016-11-30T01:13:36.307Z,0
2016-11-30T01:14:35.976Z,0
2016-11-30T01:15:35.948Z,0
2016-11-30T01:16:35.921Z,0
2016-11-30T01:17:35.896Z,0
2016-11-30T01:18:35.876Z,0
2016-11-30T01:19:35.849Z,0
2016-11-30T01:20:35.831Z,0
2016-11-30T01:21:36.103Z,0
2016-11-30T01:22:35.764Z,0
2016-11-30T01:23:35.741Z,0
2016-11-30T01:24:36.029Z,0
2016-11-30T01:25:35.688Z,0
2016-11-30T01:26:35.976Z,0
2016-11-30T01:27:35.634Z,0
2016-11-30T01:28:35.597Z,0
2016-11-30T01:29:35.902Z,0
2016-11-30T01:30:36.178Z,0
2016-11-30T01:31:35.881Z,0
2016-11-30T01:32:35.502Z,0
2016-11-30T01:33:35.784Z,0
2016-11-30T01:34:35.765Z,0
2016-11-30T01:35:35.435Z,0
2016-11-30T01:36:35.394Z,0
2016-11-30T01:37:35.372Z,0
2016-11-30T01:38:35.979Z,0
2016-11-30T01:39:35.369Z,0
2016-11-30T01:40:35.292Z,0
2016-11-30T01:41:35.274Z,0
2016-11-30T01:42:35.555Z,0
2016-11-30T01:43:35.215Z,0
2016-11-30T01:44:35.503Z,0
2016-11-30T01:45:35.160Z,0
2016-11-30T01:46:35.132Z,0
2016-11-30T01:47:35.108Z,0
2016-11-30T01:48:35.076Z,0
2016-11-30T01:49:35.061Z,0
2016-11-30T01:50:35.048Z,0
2016-11-30T01:51:35.646Z,0
2016-11-30T01:52:34.984Z,0
2016-11-30T01:53:35.273Z,0
2016-11-30T01:54:35.241Z,0
2016-11-30T01:55:35.621Z,0
2016-11-30T01:56:34.878Z,0
2016-11-30T01:57:34.852Z,0
2016-11-30T01:58:34.830Z,0
2016-11-30T01:59:34.805Z,0
2016-11-30T02:00:34.768Z,0
2016-11-30T02:01:34.781Z,0
2016-11-30T02:02:34.731Z,0
2016-11-30T02:03:34.697Z,0
2016-11-30T02:04:34.983Z,0
2016-11-30T02:05:34.641Z,0
2016-11-30T02:06:34.935Z,0
2016-11-30T02:07:34.587Z,0
2016-11-30T02:08:34.563Z,0
2016-11-30T02:09:34.856Z,0
2016-11-30T02:10:34.505Z,0
2016-11-30T02:11:34.487Z,0
2016-11-30T02:12:34.460Z,0
2016-11-30T02:13:34.427Z,0
2016-11-30T02:14:34.719Z,0
2016-11-30T02:15:34.696Z,0
2016-11-30T02:16:34.351Z,0
2016-11-30T02:17:34.646Z,0
2016-11-30T02:18:34.303Z,0
2016-11-30T02:19:34.279Z,0
2016-11-30T02:20:34.590Z,0
2016-11-30T02:21:34.230Z,0
2016-11-30T02:22:34.245Z,0
2016-11-30T02:23:34.479Z,0
2016-11-30T02:24:34.461Z,0
2016-11-30T02:25:34.126Z,0
2016-11-30T02:26:34.149Z,0
2016-11-30T02:27:34.378Z,0
2016-11-30T02:28:34.360Z,0
2016-11-30T02:29:34.647Z,0
2016-11-30T02:30:33.988Z,0
2016-11-30T02:31:34.302Z,0
2016-11-30T02:32:33.940Z,0
2016-11-30T02:33:34.223Z,0
2016-11-30T02:34:33.878Z,0
2016-11-30T02:35:33.850Z,0
2016-11-30T02:36:34.452Z,0
2016-11-30T02:37:33.804Z,0
2016-11-30T02:38:33.777Z,0
2016-11-30T02:39:33.756Z,0
2016-11-30T02:40:34.037Z,0
2016-11-30T02:41:33.698Z,0
2016-11-30T02:42:33.979Z,0
2016-11-30T02:43:33.645Z,0
2016-11-30T02:44:34.254Z,0
2016-11-30T02:45:33.936Z,0
2016-11-30T02:46:34.192Z,0
2016-11-30T02:47:33.544Z,0
2016-11-30T02:48:33.512Z,0
2016-11-30T02:49:33.489Z,0
2016-11-30T02:50:33.460Z,0
2016-11-30T02:51:33.747Z,0
2016-11-30T02:52:33.415Z,0
2016-11-30T02:53:33.379Z,0
2016-11-30T02:54:33.360Z,0
2016-11-30T02:55:33.328Z,0
2016-11-30T02:56:33.308Z,0
2016-11-30T02:57:33.597Z,0
2016-11-30T02:58:33.254Z,0
2016-11-30T02:59:33.545Z,0
2016-11-30T03:00:33.196Z,0
2016-11-30T03:01:33.208Z,0
2016-11-30T03:02:33.152Z,0
2016-11-30T03:03:33.123Z,0
2016-11-30T03:04:33.410Z,0
2016-11-30T03:05:33.398Z,0
2016-11-30T03:06:33.050Z,0
2016-11-30T03:07:33.329Z,0
2016-11-30T03:08:33.001Z,0
2016-11-30T03:09:32.965Z,0
2016-11-30T03:10:33.248Z,0
2016-11-30T03:11:33.863Z,0
2016-11-30T03:12:33.207Z,0
2016-11-30T03:13:32.863Z,0
2016-11-30T03:14:32.841Z,0
2016-11-30T03:15:33.437Z,0
2016-11-30T03:16:33.097Z,0
2016-11-30T03:17:32.759Z,0
2016-11-30T03:18:32.734Z,0
2016-11-30T03:19:32.709Z,0
2016-11-30T03:20:32.677Z,0
2016-11-30T03:21:32.963Z,0
2016-11-30T03:22:32.632Z,0
2016-11-30T03:23:32.605Z,0
2016-11-30T03:24:32.576Z,0
2016-11-30T03:25:32.544Z,0
2016-11-30T03:26:33.152Z,0
2016-11-30T03:27:32.803Z,0
2016-11-30T03:28:32.476Z,0
2016-11-30T03:29:32.476Z,0
2016-11-30T03:30:33.038Z,0
2016-11-30T03:31:33.017Z,0
2016-11-30T03:32:32.357Z,0
2016-11-30T03:33:32.341Z,0
2016-11-30T03:34:32.629Z,0
2016-11-30T03:35:32.602Z,0
2016-11-30T03:36:32.598Z,0
2016-11-30T03:37:32.238Z,0
2016-11-30T03:38:32.211Z,0
2016-11-30T03:39:32.189Z,0
2016-11-30T03:40:32.781Z,0
2016-11-30T03:41:32.189Z,0
2016-11-30T03:42:32.107Z,0
2016-11-30T03:43:32.403Z,0
2016-11-30T03:44:32.056Z,0
2016-11-30T03:45:32.032Z,0
2016-11-30T03:46:32.001Z,0
2016-11-30T03:47:32.294Z,0
2016-11-30T03:48:32.262Z,0
2016-11-30T03:49:31.924Z,0
2016-11-30T03:50:31.908Z,0
2016-11-30T03:51:31.872Z,0
2016-11-30T03:52:31.848Z,0
2016-11-30T03:53:31.822Z,0
2016-11-30T03:54:31.805Z,0
2016-11-30T03:55:32.079Z,0
2016-11-30T03:56:31.732Z,0
2016-11-30T03:57:31.717Z,0
2016-11-30T03:58:31.692Z,0
2016-11-30T03:59:31.681Z,0
2016-11-30T04:00:31.630Z,0
2016-11-30T04:01:31.602Z,0
2016-11-30T04:02:31.585Z,0
2016-11-30T04:03:31.875Z,0
2016-11-30T04:04:31.530Z,0
2016-11-30T04:05:31.826Z,0
2016-11-30T04:06:31.793Z,0
2016-11-30T04:07:31.457Z,0
2016-11-30T04:08:31.427Z,0
2016-11-30T04:09:31.433Z,0
2016-11-30T04:10:31.373Z,0
2016-11-30T04:11:31.353Z,0
2016-11-30T04:12:31.690Z,0
2016-11-30T04:13:31.316Z,0
2016-11-30T04:14:31.323Z,0
2016-11-30T04:15:31.558Z,0
2016-11-30T04:16:31.223Z,0
2016-11-30T04:17:31.195Z,0
2016-11-30T04:18:31.175Z,0
2016-11-30T04:19:31.141Z,0
2016-11-30T04:20:31.116Z,0
2016-11-30T04:21:31.123Z,0
2016-11-30T04:22:31.065Z,0
2016-11-30T04:23:31.356Z,0
2016-11-30T04:24:31.019Z,0
2016-11-30T04:25:31.304Z,0
2016-11-30T04:26:30.971Z,0
2016-11-30T04:27:30.938Z,0
2016-11-30T04:28:31.225Z,0
2016-11-30T04:29:30.882Z,0
2016-11-30T04:30:30.854Z,0
2016-11-30T04:31:30.833Z,0
2016-11-30T04:32:30.809Z,0
2016-11-30T04:33:30.776Z,0
2016-11-30T04:34:30.753Z,0
2016-11-30T04:35:31.033Z,0
2016-11-30T04:36:31.015Z,0
2016-11-30T04:37:30.679Z,0
2016-11-30T04:38:30.963Z,0
2016-11-30T04:39:30.636Z,0
2016-11-30T04:40:30.596Z,0
2016-11-30T04:41:30.885Z,0
2016-11-30T04:42:30.554Z,0
2016-11-30T04:43:30.518Z,0
2016-11-30T04:44:30.497Z,0
2016-11-30T04:45:30.465Z,0
2016-11-30T04:46:30.772Z,0
2016-11-30T04:47:30.417Z,0
2016-11-30T04:48:30.400Z,0
2016-11-30T04:49:30.366Z,0
2016-11-30T04:50:30.364Z,0
2016-11-30T04:51:30.319Z,0
2016-11-30T04:52:30.289Z,0
2016-11-30T04:53:30.263Z,0
2016-11-30T04:54:30.283Z,0
2016-11-30T04:55:30.210Z,0
2016-11-30T04:56:30.192Z,0
2016-11-30T04:57:30.164Z,0
2016-11-30T04:58:30.456Z,0
2016-11-30T04:59:30.136Z,0
2016-11-30T05:00:30.082Z,0
2016-11-30T05:01:30.059Z,0
2016-11-30T05:02:30.034Z,0
2016-11-30T05:03:30.010Z,0
2016-11-30T05:04:29.984Z,0
2016-11-30T05:05:29.958Z,0
2016-11-30T05:06:30.267Z,0
2016-11-30T05:07:29.919Z,0
2016-11-30T05:08:29.893Z,0
2016-11-30T05:09:29.860Z,0
2016-11-30T05:10:29.835Z,0
2016-11-30T05:11:29.806Z,0
2016-11-30T05:12:29.780Z,0
2016-11-30T05:13:29.750Z,0
2016-11-30T05:14:29.728Z,0
2016-11-30T05:15:30.015Z,0
2016-11-30T05:16:29.674Z,0
2016-11-30T05:17:29.657Z,0
2016-11-30T05:18:29.627Z,0
2016-11-30T05:19:29.916Z,0
2016-11-30T05:20:29.580Z,0
2016-11-30T05:21:29.558Z,0
2016-11-30T05:22:29.523Z,0
2016-11-30T05:23:29.502Z,0
2016-11-30T05:24:29.473Z,0
2016-11-30T05:25:29.763Z,0
2016-11-30T05:26:29.432Z,0
2016-11-30T05:27:29.712Z,0
2016-11-30T05:28:29.703Z,0
2016-11-30T05:29:29.349Z,0
2016-11-30T05:30:29.324Z,0
2016-11-30T05:31:29.612Z,0
2016-11-30T05:32:29.357Z,0
2016-11-30T05:33:29.574Z,0
2016-11-30T05:34:29.545Z,0
2016-11-30T05:35:29.203Z,0
2016-11-30T05:36:29.805Z,0
2016-11-30T05:37:29.485Z,0
2016-11-30T05:38:29.487Z,0
2016-11-30T05:39:29.419Z,0
2016-11-30T05:40:29.101Z,0
2016-11-30T05:41:29.365Z,0
2016-11-30T05:42:29.021Z,0
2016-11-30T05:43:29.327Z,0
2016-11-30T05:44:28.986Z,0
2016-11-30T05:45:29.263Z,0
2016-11-30T05:46:28.930Z,0
2016-11-30T05:47:28.900Z,0
2016-11-30T05:48:28.876Z,0
2016-11-30T05:49:28.858Z,0
2016-11-30T05:50:29.138Z,0
2016-11-30T05:51:28.795Z,0
2016-11-30T05:52:28.770Z,0
2016-11-30T05:53:29.092Z,0
2016-11-30T05:54:28.728Z,0
2016-11-30T05:55:28.698Z,0
2016-11-30T05:56:28.926Z,0
2016-11-30T05:57:28.956Z,0
2016-11-30T05:58:28.938Z,0
2016-11-30T05:59:28.607Z,0
2016-11-30T06:00:28.588Z,0
2016-11-30T06:01:28.550Z,0
2016-11-30T06:02:28.530Z,0
2016-11-30T06:03:28.808Z,0
2016-11-30T06:04:28.477Z,0
2016-11-30T06:05:28.465Z,0
2016-11-30T06:06:28.434Z,0
2016-11-30T06:07:28.394Z,0
2016-11-30T06:08:28.388Z,0
2016-11-30T06:09:28.350Z,0
2016-11-30T06:10:29.040Z,0
2016-11-30T06:11:28.337Z,0
2016-11-30T06:12:28.923Z,0
2016-11-30T06:13:28.573Z,0
2016-11-30T06:14:28.238Z,0
2016-11-30T06:15:28.510Z,0
2016-11-30T06:16:28.198Z,0
2016-11-30T06:17:28.160Z,0
2016-11-30T06:18:28.125Z,0
2016-11-30T06:19:28.112Z,0
2016-11-30T06:20:28.698Z,0
2016-11-30T06:21:28.053Z,0
2016-11-30T06:22:28.339Z,0
2016-11-30T06:23:28.041Z,0
2016-11-30T06:24:28.305Z,0
2016-11-30T06:25:27.965Z,0
2016-11-30T06:26:27.937Z,0
2016-11-30T06:27:27.902Z,0
2016-11-30T06:28:27.876Z,0
2016-11-30T06:29:27.852Z,0
2016-11-30T06:30:27.836Z,0
2016-11-30T06:31:27.820Z,0
2016-11-30T06:32:28.129Z,0
2016-11-30T06:33:27.759Z,0
2016-11-30T06:34:28.040Z,0
2016-11-30T06:35:28.025Z,0
2016-11-30T06:36:27.675Z,0
2016-11-30T06:37:27.661Z,0
2016-11-30T06:38:27.636Z,0
2016-11-30T06:39:27.923Z,0
2016-11-30T06:40:27.893Z,0
2016-11-30T06:41:27.606Z,0
2016-11-30T06:42:27.539Z,0
2016-11-30T06:43:27.828Z,0
2016-11-30T06:44:27.797Z,0
2016-11-30T06:45:27.452Z,0
2016-11-30T06:46:27.432Z,0
2016-11-30T06:47:27.725Z,0
2016-11-30T06:48:27.699Z,0
2016-11-30T06:49:27.739Z,0
2016-11-30T06:50:27.342Z,0
2016-11-30T06:51:27.632Z,0
2016-11-30T06:52:27.325Z,0
2016-11-30T06:53:27.256Z,0
2016-11-30T06:54:27.239Z,0
2016-11-30T06:55:27.209Z,0
2016-11-30T06:56:27.523Z,0
2016-11-30T06:57:27.185Z,0
2016-11-30T06:58:27.150Z,0
2016-11-30T06:59:28.092Z,0
2016-11-30T07:00:27.406Z,0
2016-11-30T07:01:27.688Z,0
2016-11-30T07:02:27.038Z,0
2016-11-30T07:03:27.636Z,0
2016-11-30T07:04:27.300Z,0
2016-11-30T07:05:26.964Z,0
2016-11-30T07:06:26.934Z,0
2016-11-30T07:07:26.911Z,0
2016-11-30T07:08:26.883Z,0
2016-11-30T07:09:27.166Z,0
2016-11-30T07:10:26.877Z,0
2016-11-30T07:11:27.122Z,0
2016-11-30T07:12:26.780Z,0
2016-11-30T07:13:27.072Z,5
2016-11-30T07:14:26.737Z,5
2016-11-30T07:15:27.027Z,5
2016-11-30T07:16:26.679Z,5
2016-11-30T07:17:26.665Z,5
2016-11-30T07:18:26.632Z,5
2016-11-30T07:19:26.603Z,5
2016-11-30T07:20:26.894Z,5
2016-11-30T07:21:26.871Z,5
2016-11-30T07:22:26.531Z,10
2016-11-30T07:23:26.510Z,10
2016-11-30T07:24:26.479Z,10
2016-11-30T07:25:26.459Z,10
2016-11-30T07:26:26.440Z,10
2016-11-30T07:27:26.440Z,10
2016-11-30T07:28:26.698Z,15
2016-11-30T07:29:26.548Z,15
2016-11-30T07:30:26.679Z,15
2016-11-30T07:31:26.652Z,15
2016-11-30T07:32:26.297Z,15
2016-11-30T07:33:26.256Z,15
2016-11-30T07:34:26.240Z,20
2016-11-30T07:35:26.206Z,20
2016-11-30T07:36:26.242Z,20
2016-11-30T07:37:26.161Z,20
2016-11-30T07:38:26.167Z,25
2016-11-30T07:39:26.106Z,25
2016-11-30T07:40:26.110Z,25
2016-11-30T07:41:26.066Z,25
2016-11-30T07:42:26.698Z,25
2016-11-30T07:43:26.021Z,25
2016-11-30T07:44:26.325Z,25
2016-11-30T07:45:26.612Z,30
2016-11-30T07:46:26.570Z,30
2016-11-30T07:47:25.919Z,30
2016-11-30T07:48:26.201Z,30
2016-11-30T07:49:25.862Z,30
2016-11-30T07:50:26.463Z,30
2016-11-30T07:51:26.133Z,30
2016-11-30T07:52:25.785Z,30
2016-11-30T07:53:25.768Z,35
2016-11-30T07:54:25.735Z,35
2016-11-30T07:55:25.716Z,35
2016-11-30T07:56:25.892Z,35
2016-11-30T07:57:25.688Z,35
2016-11-30T07:58:25.639Z,35
2016-11-30T07:59:25.616Z,40
2016-11-30T08:00:25.589Z,40
2016-11-30T08:01:25.568Z,40
2016-11-30T08:02:25.915Z,40
2016-11-30T08:03:25.858Z,40
2016-11-30T08:04:25.496Z,45
2016-11-30T08:05:25.472Z,45
2016-11-30T08:06:25.447Z,45
2016-11-30T08:07:25.736Z,45
2016-11-30T08:08:25.396Z,50
2016-11-30T08:09:25.376Z,50
2016-11-30T08:10:25.353Z,50
2016-11-30T08:11:25.374Z,55
2016-11-30T08:12:25.631Z,55
2016-11-30T08:13:25.289Z,55
2016-11-30T08:14:25.879Z,60
2016-11-30T08:15:25.540Z,55
2016-11-30T08:16:25.212Z,60
2016-11-30T08:17:25.182Z,60
2016-11-30T08:18:25.152Z,65
2016-11-30T08:19:25.443Z,65
2016-11-30T08:20:25.101Z,65
2016-11-30T08:21:26.048Z,65
2016-11-30T08:22:25.379Z,70
2016-11-30T08:23:25.035Z,70
2016-11-30T08:24:25.329Z,70
2016-11-30T08:25:24.988Z,70
2016-11-30T08:26:24.965Z,70
2016-11-30T08:27:24.935Z,70
2016-11-30T08:28:24.931Z,70
2016-11-30T08:29:24.889Z,75
2016-11-30T08:30:24.871Z,75
2016-11-30T08:31:24.838Z,75
2016-11-30T08:32:24.827Z,75
2016-11-30T08:33:25.108Z,75
2016-11-30T08:34:24.768Z,75
2016-11-30T08:35:24.747Z,75
2016-11-30T08:36:24.725Z,75
2016-11-30T08:37:24.697Z,75
2016-11-30T08:38:24.989Z,75
2016-11-30T08:39:24.657Z,75
2016-11-30T08:40:24.628Z,75
2016-11-30T08:41:24.606Z,75
2016-11-30T08:42:24.889Z,75
2016-11-30T08:43:24.585Z,75
2016-11-30T08:44:24.846Z,75
2016-11-30T08:45:24.509Z,75
2016-11-30T08:46:24.480Z,75
2016-11-30T08:47:24.472Z,75
2016-11-30T08:48:24.458Z,75
2016-11-30T08:49:24.412Z,80
2016-11-30T08:50:24.704Z,80
2016-11-30T08:51:24.370Z,80
2016-11-30T08:52:24.655Z,85
2016-11-30T08:53:24.321Z,85
2016-11-30T08:54:24.636Z,85
2016-11-30T08:55:24.589Z,85
2016-11-30T08:56:24.571Z,90
2016-11-30T08:57:24.547Z,95
2016-11-30T08:58:24.833Z,95
2016-11-30T08:59:24.518Z,100
2016-11-30T09:00:24.498Z,100
2016-11-30T09:01:24.442Z,100
2016-11-30T09:02:24.129Z,100
2016-11-30T09:03:24.429Z,100
2016-11-30T09:04:24.065Z,105
2016-11-30T09:05:24.369Z,105
2016-11-30T09:06:24.332Z,100
2016-11-30T09:07:23.993Z,105
2016-11-30T09:08:23.985Z,105
2016-11-30T09:09:24.253Z,105
2016-11-30T09:10:24.233Z,110
2016-11-30T09:11:23.903Z,115
2016-11-30T09:12:24.506Z,105
2016-11-30T09:13:24.491Z,110
2016-11-30T09:14:23.830Z,110
2016-11-30T09:15:23.803Z,115
2016-11-30T09:16:23.786Z,120
2016-11-30T09:17:23.764Z,145
2016-11-30T09:18:24.054Z,145
2016-11-30T09:19:24.038Z,130
2016-11-30T09:20:23.689Z,125
2016-11-30T09:21:23.670Z,125
2016-11-30T09:22:23.648Z,125
2016-11-30T09:23:23.642Z,125
2016-11-30T09:24:23.916Z,125
2016-11-30T09:25:23.582Z,130
2016-11-30T09:26:23.884Z,145
2016-11-30T09:27:23.532Z,170
2016-11-30T09:28:23.515Z,185
2016-11-30T09:29:23.507Z,185
2016-11-30T09:30:23.476Z,180
2016-11-30T09:31:23.761Z,160
2016-11-30T09:32:23.432Z,145
2016-11-30T09:33:23.457Z,145
2016-11-30T09:34:23.384Z,145
2016-11-30T09:35:23.358Z,140
2016-11-30T09:36:23.963Z,135
2016-11-30T09:37:23.316Z,135
2016-11-30T09:38:23.296Z,135
2016-11-30T09:39:23.905Z,135
2016-11-30T09:40:23.255Z,140
2016-11-30T09:41:23.540Z,150
2016-11-30T09:42:23.207Z,155
2016-11-30T09:43:23.187Z,165
2016-11-30T09:44:23.166Z,185
2016-11-30T09:45:23.460Z,200
2016-11-30T09:46:23.132Z,200
2016-11-30T09:47:23.098Z,215
2016-11-30T09:48:23.406Z,220
2016-11-30T09:49:23.369Z,215
2016-11-30T09:50:23.386Z,200
2016-11-30T09:51:23.014Z,225
2016-11-30T09:52:22.994Z,250
2016-11-30T09:53:22.972Z,245
2016-11-30T09:54:23.270Z,290
2016-11-30T09:55:23.248Z,325
2016-11-30T09:56:23.140Z,310
2016-11-30T09:57:23.206Z,290
2016-11-30T09:58:22.869Z,295
2016-11-30T09:59:22.858Z,295
2016-11-30T10:00:22.833Z,270
2016-11-30T10:01:22.848Z,290
2016-11-30T10:02:22.800Z,295
2016-11-30T10:03:22.779Z,320
2016-11-30T10:04:22.762Z,330
2016-11-30T10:05:22.740Z,295
2016-11-30T10:06:22.728Z,260
2016-11-30T10:07:22.701Z,300
2016-11-30T10:08:23.307Z,305
2016-11-30T10:09:22.667Z,295
2016-11-30T10:10:22.649Z,255
2016-11-30T10:11:22.623Z,230
2016-11-30T10:12:22.610Z,250
2016-11-30T10:13:22.907Z,240
2016-11-30T10:14:22.898Z,260
2016-11-30T10:15:22.559Z,305
2016-11-30T10:16:22.560Z,310
2016-11-30T10:17:22.574Z,310
2016-11-30T10:18:23.129Z,290
2016-11-30T10:19:22.797Z,300
2016-11-30T10:20:22.475Z,290
2016-11-30T10:21:22.769Z,280
2016-11-30T10:22:22.428Z,310
2016-11-30T10:23:22.743Z,340
2016-11-30T10:24:22.708Z,295
2016-11-30T10:25:22.691Z,285
2016-11-30T10:26:22.354Z,280
2016-11-30T10:27:22.340Z,285
2016-11-30T10:28:22.321Z,290
2016-11-30T10:29:22.612Z,285
2016-11-30T10:30:22.288Z,270
2016-11-30T10:31:22.900Z,250
2016-11-30T10:32:22.563Z,255
2016-11-30T10:33:22.247Z,275
2016-11-30T10:34:22.536Z,250
2016-11-30T10:35:22.203Z,215
2016-11-30T10:36:22.183Z,230
2016-11-30T10:37:22.481Z,270
2016-11-30T10:38:22.147Z,320
2016-11-30T10:39:22.138Z,345
2016-11-30T10:40:22.106Z,360
2016-11-30T10:41:22.434Z,340
2016-11-30T10:42:22.417Z,350
2016-11-30T10:43:22.071Z,380
2016-11-30T10:44:22.053Z,380
2016-11-30T10:45:22.033Z,360
2016-11-30T10:46:22.047Z,315
2016-11-30T10:47:22.003Z,300
2016-11-30T10:48:21.983Z,300
2016-11-30T10:49:21.968Z,325
2016-11-30T10:50:21.947Z,325
2016-11-30T10:51:21.975Z,345
2016-11-30T10:52:21.953Z,340
2016-11-30T10:53:21.896Z,325
2016-11-30T10:54:21.886Z,330
2016-11-30T10:55:21.863Z,365
2016-11-30T10:56:21.847Z,385
2016-11-30T10:57:21.835Z,385
2016-11-30T10:58:21.832Z,360
2016-11-30T10:59:21.801Z,360
2016-11-30T11:00:21.787Z,395
2016-11-30T11:01:21.777Z,400
2016-11-30T11:02:21.755Z,410
2016-11-30T11:03:22.055Z,385
2016-11-30T11:04:21.728Z,345
2016-11-30T11:05:21.713Z,325
2016-11-30T11:06:21.696Z,320
2016-11-30T11:07:21.679Z,310
2016-11-30T11:08:21.973Z,295
2016-11-30T11:09:21.650Z,290
2016-11-30T11:10:21.633Z,285
2016-11-30T11:11:21.928Z,275
2016-11-30T11:12:21.616Z,280
2016-11-30T11:13:21.593Z,305
2016-11-30T11:14:21.898Z,340
2016-11-30T11:15:21.878Z,345
2016-11-30T11:16:21.550Z,360
2016-11-30T11:17:21.529Z,330
2016-11-30T11:18:21.519Z,305
2016-11-30T11:19:21.516Z,275
2016-11-30T11:20:21.492Z,235
2016-11-30T11:21:21.472Z,215
2016-11-30T11:22:21.764Z,200
2016-11-30T11:23:21.443Z,195
2016-11-30T11:24:21.435Z,185
2016-11-30T11:25:21.403Z,175
2016-11-30T11:26:21.696Z,175
2016-11-30T11:27:21.379Z,165
2016-11-30T11:28:21.354Z,160
2016-11-30T11:29:21.374Z,160
2016-11-30T11:30:21.322Z,160
2016-11-30T11:31:21.937Z,160
2016-11-30T11:32:21.596Z,160
2016-11-30T11:33:21.301Z,160
2016-11-30T11:34:21.257Z,150
2016-11-30T11:35:21.228Z,150
2016-11-30T11:36:21.220Z,145
2016-11-30T11:37:21.201Z,155
2016-11-30T11:38:21.495Z,150
2016-11-30T11:39:21.167Z,155
2016-11-30T11:40:21.143Z,160
2016-11-30T11:41:21.128Z,165
2016-11-30T11:42:21.445Z,165
2016-11-30T11:43:21.126Z,170
2016-11-30T11:44:21.074Z,165
2016-11-30T11:45:21.400Z,170
2016-11-30T11:46:21.353Z,170
2016-11-30T11:47:21.050Z,175
2016-11-30T11:48:20.996Z,175
2016-11-30T11:49:20.987Z,175
2016-11-30T11:50:20.965Z,170
2016-11-30T11:51:20.945Z,170
2016-11-30T11:52:20.954Z,160
2016-11-30T11:53:21.222Z,155
2016-11-30T11:54:20.883Z,165
2016-11-30T11:55:21.183Z,175
2016-11-30T11:56:21.382Z,190
2016-11-30T11:57:20.836Z,210
2016-11-30T11:58:20.808Z,295
2016-11-30T11:59:20.845Z,305
2016-11-30T12:00:20.790Z,360
2016-11-30T12:01:21.079Z,340
2016-11-30T12:02:20.755Z,345
2016-11-30T12:03:20.729Z,355
2016-11-30T12:04:21.022Z,350
2016-11-30T12:05:20.693Z,360
2016-11-30T12:06:20.991Z,375
2016-11-30T12:07:21.292Z,390
2016-11-30T12:08:20.959Z,410
2016-11-30T12:09:20.627Z,420
2016-11-30T12:10:20.611Z,425
2016-11-30T12:11:20.909Z,420
2016-11-30T12:12:20.899Z,415
2016-11-30T12:13:20.599Z,430
2016-11-30T12:14:20.554Z,430
2016-11-30T12:15:21.159Z,440
2016-11-30T12:16:20.839Z,425
2016-11-30T12:17:20.507Z,400
2016-11-30T12:18:20.534Z,405
2016-11-30T12:19:20.477Z,405
2016-11-30T12:20:20.467Z,395
2016-11-30T12:21:20.454Z,380
2016-11-30T12:22:20.448Z,390
2016-11-30T12:23:20.431Z,390
2016-11-30T12:24:20.742Z,395
2016-11-30T12:25:20.861Z,410
2016-11-30T12:26:20.731Z,415
2016-11-30T12:27:20.738Z,405
2016-11-30T12:28:20.686Z,375
2016-11-30T12:29:20.359Z,365
2016-11-30T12:30:20.351Z,375
2016-11-30T12:31:20.659Z,380
2016-11-30T12:32:20.329Z,430
2016-11-30T12:33:20.310Z,445
2016-11-30T12:34:20.306Z,445
2016-11-30T12:35:20.293Z,435
2016-11-30T12:36:20.272Z,385
2016-11-30T12:37:20.581Z,380
2016-11-30T12:38:20.248Z,365
2016-11-30T12:39:20.245Z,345
2016-11-30T12:40:20.232Z,330
2016-11-30T12:41:20.212Z,300
2016-11-30T12:42:20.205Z,240
2016-11-30T12:43:21.141Z,175
2016-11-30T12:44:20.188Z,95
2016-11-30T12:45:20.175Z,80
2016-11-30T12:46:20.477Z,80
2016-11-30T12:47:20.478Z,75
2016-11-30T12:48:20.167Z,70
2016-11-30T12:49:20.129Z,65
2016-11-30T12:50:20.428Z,65
2016-11-30T12:51:20.416Z,60
2016-11-30T12:52:20.092Z,55
2016-11-30T12:53:20.119Z,55
2016-11-30T12:54:20.071Z,60
2016-11-30T12:55:20.367Z,60
2016-11-30T12:56:20.043Z,55
2016-11-30T12:57:20.340Z,55
2016-11-30T12:58:20.004Z,50
2016-11-30T12:59:20.309Z,50
2016-11-30T13:00:19.983Z,50
2016-11-30T13:01:19.970Z,55
2016-11-30T13:02:19.953Z,55
2016-11-30T13:03:20.245Z,55
2016-11-30T13:04:19.925Z,50
2016-11-30T13:05:20.215Z,50
2016-11-30T13:06:19.888Z,50
2016-11-30T13:07:20.497Z,50
2016-11-30T13:08:19.869Z,50
2016-11-30T13:09:19.851Z,50
2016-11-30T13:10:20.142Z,50
2016-11-30T13:11:20.116Z,50
2016-11-30T13:12:19.815Z,50
2016-11-30T13:13:20.096Z,45
2016-11-30T13:14:20.083Z,45
2016-11-30T13:15:20.051Z,45
2016-11-30T13:16:20.037Z,40
2016-11-30T13:17:19.706Z,40
2016-11-30T13:18:20.004Z,40
2016-11-30T13:19:19.987Z,40
2016-11-30T13:20:19.649Z,40
2016-11-30T13:21:19.644Z,35
2016-11-30T13:22:19.933Z,35
2016-11-30T13:23:19.912Z,35
2016-11-30T13:24:19.888Z,35
2016-11-30T13:25:19.563Z,35
2016-11-30T13:26:19.538Z,35
2016-11-30T13:27:19.833Z,35
2016-11-30T13:28:19.509Z,35
2016-11-30T13:29:19.485Z,35
2016-11-30T13:30:19.473Z,35
2016-11-30T13:31:19.476Z,35
2016-11-30T13:32:19.437Z,30
2016-11-30T13:33:19.413Z,30
2016-11-30T13:34:19.426Z,30
2016-11-30T13:35:20.000Z,30
2016-11-30T13:36:19.674Z,30
2016-11-30T13:37:19.371Z,25
2016-11-30T13:38:19.312Z,25
2016-11-30T13:39:19.305Z,25
2016-11-30T13:40:19.275Z,25
2016-11-30T13:41:19.258Z,25
2016-11-30T13:42:19.247Z,30
2016-11-30T13:43:19.876Z,30
2016-11-30T13:44:19.213Z,30
2016-11-30T13:45:19.191Z,30
2016-11-30T13:46:19.178Z,30
2016-11-30T13:47:19.184Z,30
2016-11-30T13:48:19.127Z,30
2016-11-30T13:49:19.106Z,30
2016-11-30T13:50:19.402Z,30
2016-11-30T13:51:19.382Z,30
2016-11-30T13:52:19.052Z,35
2016-11-30T13:53:19.027Z,30
2016-11-30T13:54:19.008Z,30
2016-11-30T13:55:19.313Z,30
2016-11-30T13:56:19.294Z,30
2016-11-30T13:57:19.168Z,30
2016-11-30T13:58:18.935Z,30
2016-11-30T13:59:18.931Z,30
2016-11-30T14:00:19.425Z,25
2016-11-30T14:01:18.904Z,25
2016-11-30T14:02:19.192Z,25
2016-11-30T14:03:19.172Z,25
2016-11-30T14:04:18.845Z,25
2016-11-30T14:05:18.876Z,20
2016-11-30T14:06:18.783Z,20
2016-11-30T14:07:19.099Z,20
2016-11-30T14:08:18.758Z,20
2016-11-30T14:09:19.062Z,20
2016-11-30T14:10:19.031Z,20
2016-11-30T14:11:19.324Z,20
2016-11-30T14:12:18.687Z,20
2016-11-30T14:13:18.973Z,20
2016-11-30T14:14:18.650Z,20
2016-11-30T14:15:19.245Z,20
2016-11-30T14:16:18.618Z,15
2016-11-30T14:17:18.895Z,15
2016-11-30T14:18:18.561Z,15
2016-11-30T14:19:19.178Z,15
2016-11-30T14:20:18.839Z,15
2016-11-30T14:21:19.165Z,15
2016-11-30T14:22:18.800Z,15
2016-11-30T14:23:18.787Z,10